Time;durP1;ratioP1;P1;durP2;ratioP2;P2;SDS_P1;SDS_P2;PMS_P1;PMS_P2;Temp;Humidity;BMP_temperature;BMP_pressure;BME280_temperature;BME280_humidity;BME280_pressure;Samples;Min_cycle;Max_cycle;Signal;HPM_P1;HPM_P2
2021/04/22 00:00:13;;;;;;;52.88;22.55;;;;;;;11.23;66.79;101479.47;5053629;28;20057;-77
2021/04/22 00:02:40;;;;;;;45.03;21.98;;;;;;;11.10;66.98;101478.28;5015990;28;20053;-78
2021/04/22 00:05:23;;;;;;;38.97;21.02;;;;;;;11.14;66.86;101476.56;5018229;28;20053;-76
2021/04/22 00:07:51;;;;;;;43.55;21.10;;;;;;;11.06;67.06;101479.16;5043271;28;20419;-76
2021/04/22 00:10:23;;;;;;;45.90;20.55;;;;;;;11.03;66.88;101483.38;5032437;28;20626;-78
2021/04/22 00:12:50;;;;;;;41.20;21.00;;;;;;;10.84;67.79;101471.50;5050985;28;20041;-78
2021/04/22 00:15:18;;;;;;;50.38;20.70;;;;;;;10.93;67.33;101477.97;5050596;28;20060;-77
2021/04/22 00:17:46;;;;;;;43.50;20.88;;;;;;;10.75;67.85;101477.97;5049777;28;20057;-75
2021/04/22 00:20:15;;;;;;;49.13;20.05;;;;;;;10.71;68.25;101479.66;5050389;28;20049;-76
2021/04/22 00:22:49;;;;;;;36.42;18.75;;;;;;;10.84;67.29;101488.03;5018685;28;20394;-76
2021/04/22 00:25:16;;;;;;;42.08;18.95;;;;;;;11.02;66.79;101489.97;5028952;28;20425;-76
2021/04/22 00:27:43;;;;;;;41.30;19.10;;;;;;;10.74;67.61;101488.16;5031752;28;20068;-80
2021/04/22 00:30:14;;;;;;;38.03;19.92;;;;;;;10.79;67.40;101492.78;5048845;28;20071;-77
2021/04/22 00:32:42;;;;;;;45.75;19.02;;;;;;;10.64;67.88;101491.06;5041123;28;20052;-77
2021/04/22 00:35:10;;;;;;;43.05;17.15;;;;;;;10.58;67.92;101488.66;5036446;28;20400;-79
2021/04/22 00:37:38;;;;;;;49.97;18.83;;;;;;;10.46;68.15;101497.31;5053024;28;20404;-76
2021/04/22 00:40:09;;;;;;;51.47;19.17;;;;;;;10.71;67.91;101490.69;5040627;28;20053;-78
2021/04/22 00:42:36;;;;;;;43.17;17.98;;;;;;;10.60;68.10;101501.00;5024209;28;20052;-78
2021/04/22 00:45:04;;;;;;;42.45;17.50;;;;;;;10.82;67.41;101497.72;5056553;28;20045;-77
2021/04/22 00:47:31;;;;;;;39.83;17.55;;;;;;;10.42;67.69;101496.28;5055561;28;20056;-77
2021/04/22 00:49:59;;;;;;;41.05;18.17;;;;;;;10.20;68.59;101501.47;5036226;28;20056;-78
2021/04/22 00:52:27;;;;;;;42.58;17.17;;;;;;;10.30;68.59;101504.16;5038419;28;20045;-77
2021/04/22 00:54:54;;;;;;;35.95;17.58;;;;;;;10.33;68.00;101503.56;4988778;28;20064;-78
2021/04/22 00:57:21;;;;;;;38.08;16.65;;;;;;;10.54;67.12;101498.63;5038251;28;20049;-77
2021/04/22 00:59:48;;;;;;;35.85;16.85;;;;;;;10.42;67.34;101499.03;5032250;28;20054;-75
2021/04/22 01:02:16;;;;;;;43.42;17.17;;;;;;;10.23;67.31;101511.94;5050043;28;20400;-77
2021/04/22 01:04:47;;;;;;;38.92;15.55;;;;;;;10.23;68.00;101509.19;5050543;28;20052;-77
2021/04/22 01:07:14;;;;;;;38.70;16.38;;;;;;;10.07;67.90;101514.00;5050111;28;20049;-78
2021/04/22 01:09:42;;;;;;;38.33;15.90;;;;;;;10.32;67.15;101521.16;5031964;28;20049;-77
2021/04/22 01:12:11;;;;;;;47.85;16.15;;;;;;;10.37;67.51;101514.81;5050040;28;20068;-77
2021/04/22 01:14:40;;;;;;;46.30;16.23;;;;;;;10.31;66.95;101516.78;5032789;28;20041;-76
2021/04/22 01:17:08;;;;;;;36.50;15.38;;;;;;;10.02;67.44;101513.22;5039422;28;20049;-77
2021/04/22 01:19:35;;;;;;;40.30;16.20;;;;;;;9.63;68.48;101513.28;5032123;28;20049;-76
2021/04/22 01:22:02;;;;;;;32.58;15.18;;;;;;;9.62;68.69;101524.59;5049602;28;20067;-77
2021/04/22 01:24:30;;;;;;;39.80;16.17;;;;;;;9.62;69.45;101516.34;5048105;28;20497;-75
2021/04/22 01:26:57;;;;;;;47.65;16.55;;;;;;;9.99;67.89;101511.84;5032217;28;20049;-78
2021/04/22 01:29:24;;;;;;;34.80;15.55;;;;;;;9.86;67.54;101519.97;5053037;28;20048;-77
2021/04/22 01:31:51;;;;;;;39.22;15.02;;;;;;;9.57;68.57;101514.44;5053974;28;20071;-77
2021/04/22 01:34:19;;;;;;;40.42;15.43;;;;;;;9.69;68.24;101516.81;5053726;28;20049;-76
2021/04/22 01:36:47;;;;;;;40.00;16.50;;;;;;;9.48;69.44;101516.19;5037154;28;20071;-78
2021/04/22 01:39:14;;;;;;;37.88;15.57;;;;;;;9.46;69.12;101521.13;5054762;28;20041;-78
2021/04/22 01:41:41;;;;;;;39.78;16.40;;;;;;;9.73;68.54;101517.88;5052199;28;20060;-79
2021/04/22 01:44:09;;;;;;;34.47;15.02;;;;;;;9.90;68.42;101521.84;5032033;28;20519;-77
2021/04/22 01:46:36;;;;;;;35.45;14.93;;;;;;;9.67;67.61;101519.03;5035446;28;20060;-76
2021/04/22 01:49:07;;;;;;;37.70;15.20;;;;;;;9.52;68.91;101517.22;5035829;28;20060;-77
2021/04/22 01:51:34;;;;;;;37.53;14.73;;;;;;;9.35;69.14;101521.47;5053257;28;20052;-78
2021/04/22 01:54:02;;;;;;;38.83;14.95;;;;;;;9.49;68.57;101512.31;5054037;28;20071;-77
2021/04/22 01:56:28;;;;;;;39.60;15.63;;;;;;;9.67;67.81;101521.78;5054430;28;20116;-76
2021/04/22 01:58:59;;;;;;;39.30;15.10;;;;;;;9.39;68.78;101517.06;5032286;28;20040;-76
2021/04/22 02:01:26;;;;;;;50.28;16.42;;;;;;;9.38;68.84;101507.19;5048052;28;20488;-77
2021/04/22 02:03:53;;;;;;;32.88;14.07;;;;;;;9.53;68.46;101520.81;5031666;28;20501;-76
2021/04/22 02:06:20;;;;;;;37.92;15.07;;;;;;;9.50;67.97;101511.19;5047232;28;20520;-77
2021/04/22 02:08:46;;;;;;;40.83;15.30;;;;;;;9.64;68.09;101516.88;5053007;28;20057;-77
2021/04/22 02:11:15;;;;;;;44.45;15.25;;;;;;;9.60;67.81;101518.53;5034710;28;20045;-76
2021/04/22 02:13:41;;;;;;;35.78;15.00;;;;;;;9.56;67.45;101528.47;5053263;28;20480;-76
2021/04/22 02:16:08;;;;;;;38.58;15.25;;;;;;;9.27;68.71;101528.41;5053179;28;20048;-75
2021/04/22 02:18:35;;;;;;;35.83;15.02;;;;;;;9.46;68.27;101536.81;5035383;28;20049;-77
2021/04/22 02:21:02;;;;;;;41.38;15.05;;;;;;;9.18;68.50;101526.53;5018318;28;20041;-77
2021/04/22 02:23:30;;;;;;;35.22;14.40;;;;;;;9.28;69.11;101526.47;5052627;28;20041;-75
2021/04/22 02:25:57;;;;;;;34.50;13.73;;;;;;;9.21;68.57;101532.28;5031712;28;20243;-77
2021/04/22 02:28:24;;;;;;;40.78;14.88;;;;;;;9.13;69.20;101535.66;5048266;28;20049;-78
2021/04/22 02:30:52;;;;;;;37.33;15.35;;;;;;;9.17;69.09;101533.16;5017048;28;20412;-76
2021/04/22 02:33:19;;;;;;;34.80;14.27;;;;;;;9.09;69.00;101543.66;5052423;28;20428;-78
2021/04/22 02:35:48;;;;;;;39.75;14.35;;;;;;;8.79;70.30;101534.72;5052323;28;20053;-76
2021/04/22 02:38:16;;;;;;;41.70;16.10;;;;;;;8.53;71.04;101538.66;5003307;28;20048;-77
2021/04/22 02:40:45;;;;;;;36.15;14.70;;;;;;;8.75;70.54;101531.72;5051554;28;20489;-76
2021/04/22 02:43:15;;;;;;;35.60;13.70;;;;;;;9.05;70.67;101537.06;5051926;28;20052;-77
2021/04/22 02:45:48;;;;;;;36.67;14.10;;;;;;;9.20;68.80;101533.41;5052031;28;20045;-76
2021/04/22 02:48:15;;;;;;;39.40;13.65;;;;;;;9.80;67.31;101540.38;5035496;28;20049;-75
2021/04/22 02:50:47;;;;;;;32.65;13.57;;;;;;;9.72;66.85;101552.00;5014376;28;20491;-77
2021/04/22 02:53:15;;;;;;;37.10;14.52;;;;;;;9.15;68.28;101549.94;5048373;28;20046;-76
2021/04/22 02:55:43;;;;;;;41.70;14.77;;;;;;;9.04;68.24;101551.91;5033863;28;20052;-76
2021/04/22 02:58:23;;;;;;;38.67;14.18;;;;;;;9.03;68.62;101553.00;5022201;28;20400;-74
2021/04/22 03:00:50;;;;;;;33.90;13.68;;;;;;;9.03;68.96;101555.75;5033650;28;20060;-74
2021/04/22 03:03:17;;;;;;;34.35;14.18;;;;;;;8.89;69.53;101567.66;5050820;28;20051;-76
2021/04/22 03:05:44;;;;;;;37.63;14.75;;;;;;;8.85;69.10;101561.91;5033960;28;20053;-75
2021/04/22 03:08:12;;;;;;;33.33;13.82;;;;;;;9.21;69.17;101564.44;5051862;28;20056;-77
2021/04/22 03:10:39;;;;;;;40.35;15.02;;;;;;;9.27;67.97;101564.16;5001176;28;20226;-75
2021/04/22 03:13:06;;;;;;;42.78;14.50;;;;;;;9.29;67.26;101567.44;5051171;28;20408;-76
2021/04/22 03:15:34;;;;;;;32.17;14.05;;;;;;;9.08;68.11;101565.91;5030179;28;20060;-75
2021/04/22 03:18:03;;;;;;;;;;;;;;;9.13;68.17;101558.44;5039055;28;20057;-76
2021/04/22 03:20:30;;;;;;;43.15;13.10;;;;;;;8.88;68.73;101571.50;5034773;28;19928;-78
2021/04/22 03:22:58;;;;;;;37.20;14.73;;;;;;;8.60;69.75;101562.00;5052502;28;20059;-77
2021/04/22 03:25:26;;;;;;;34.45;13.70;;;;;;;8.41;70.64;101574.69;5034483;28;20064;-75
2021/04/22 03:27:53;;;;;;;34.97;13.93;;;;;;;8.57;69.87;101576.28;5036038;28;20041;-77
2021/04/22 03:30:24;;;;;;;30.27;13.57;;;;;;;8.47;69.99;101570.81;5051595;28;20049;-77
2021/04/22 03:32:51;;;;;;;;;;;;;;;8.46;69.67;101571.09;5015980;28;20056;-78
2021/04/22 03:35:18;;;;;;;38.03;13.57;;;;;;;8.31;70.37;101566.47;5028018;28;19939;-77
2021/04/22 03:37:47;;;;;;;35.45;13.25;;;;;;;8.41;70.00;101563.69;5031379;28;20496;-78
2021/04/22 03:40:16;;;;;;;45.03;13.40;;;;;;;8.46;69.54;101563.69;5051680;28;20060;-78
2021/04/22 03:42:44;;;;;;;30.40;12.25;;;;;;;8.51;70.30;101571.91;5035282;28;20137;-78
2021/04/22 03:45:13;;;;;;;40.05;12.93;;;;;;;8.14;70.59;101562.34;5051807;28;20047;-76
2021/04/22 03:47:41;;;;;;;34.30;13.13;;;;;;;8.00;71.27;101559.34;5051556;28;20408;-75
2021/04/22 03:50:10;;;;;;;32.53;12.65;;;;;;;8.25;70.49;101555.75;5050814;28;20396;-77
2021/04/22 03:52:38;;;;;;;32.60;12.60;;;;;;;8.00;70.72;101554.66;5049473;28;20048;-77
2021/04/22 03:55:07;;;;;;;29.75;12.40;;;;;;;8.17;70.36;101559.03;5051916;28;20044;-77
2021/04/22 03:57:34;;;;;;;33.35;12.80;;;;;;;8.19;70.37;101557.69;5050921;28;20045;-76
2021/04/22 04:00:06;;;;;;;32.92;12.77;;;;;;;8.18;69.63;101564.25;5051743;28;20045;-78
2021/04/22 04:02:33;;;;;;;36.90;13.15;;;;;;;7.92;70.20;101560.72;5020145;28;20060;-78
2021/04/22 04:05:00;;;;;;;33.42;13.50;;;;;;;8.10;70.52;101564.81;5052799;28;20037;-77
2021/04/22 04:07:28;;;;;;;33.60;12.60;;;;;;;7.77;71.35;101570.88;5053242;28;20041;-78
2021/04/22 04:09:56;;;;;;;36.20;13.65;;;;;;;7.86;71.58;101564.56;5053946;28;20033;-79
2021/04/22 04:12:26;;;;;;;;;;;;;;;8.21;70.16;101563.69;5055464;28;20064;-78
2021/04/22 04:14:54;;;;;;;34.75;12.05;;;;;;;8.15;70.09;101573.03;5054872;28;19921;-76
2021/04/22 04:17:22;;;;;;;33.78;11.35;;;;;;;8.39;68.65;101573.28;5049453;28;20053;-77
2021/04/22 04:19:49;;;;;;;29.92;11.73;;;;;;;8.28;68.40;101583.47;5031854;28;20056;-76
2021/04/22 04:22:16;;;;;;;30.30;11.68;;;;;;;8.24;68.89;101579.66;5050510;28;20581;-76
2021/04/22 04:24:43;;;;;;;37.80;12.63;;;;;;;8.07;69.52;101592.81;5029902;28;20057;-76
2021/04/22 04:27:10;;;;;;;34.83;11.60;;;;;;;7.66;70.71;101599.38;5039851;28;20056;-76
2021/04/22 04:29:37;;;;;;;31.63;12.55;;;;;;;7.51;70.98;101599.38;5033015;28;20041;-76
2021/04/22 04:32:04;;;;;;;34.40;10.70;;;;;;;7.62;70.70;101604.59;5016862;28;20163;-77
2021/04/22 04:34:31;;;;;;;28.00;10.93;;;;;;;7.51;70.77;101599.38;5051350;28;20048;-76
2021/04/22 04:37:02;;;;;;;29.42;11.32;;;;;;;7.60;70.40;101597.75;5031190;28;20050;-77
2021/04/22 04:39:29;;;;;;;31.40;11.32;;;;;;;7.92;70.21;101601.88;5020283;28;20068;-76
2021/04/22 04:41:56;;;;;;;38.70;12.43;;;;;;;7.91;69.21;101600.22;5050142;28;20431;-77
2021/04/22 04:44:23;;;;;;;36.70;11.82;;;;;;;7.71;70.05;101602.94;5051040;28;20412;-76
2021/04/22 04:46:50;;;;;;;31.42;11.57;;;;;;;7.81;69.30;101602.16;5012779;28;20049;-76
2021/04/22 04:49:18;;;;;;;30.45;10.57;;;;;;;7.74;68.91;101613.38;5017081;28;20372;-77
2021/04/22 04:51:45;;;;;;;33.80;12.15;;;;;;;7.22;71.19;101623.66;5029734;28;20054;-77
2021/04/22 04:54:12;;;;;;;30.80;11.43;;;;;;;7.43;70.46;101627.28;5032702;28;20041;-75
2021/04/22 04:56:39;;;;;;;33.45;12.23;;;;;;;7.41;70.32;101622.09;5050640;28;20069;-78
2021/04/22 04:59:07;;;;;;;32.38;11.95;;;;;;;7.35;70.58;101628.66;5051530;28;20075;-79
2021/04/22 05:01:34;;;;;;;34.92;11.15;;;;;;;7.47;70.37;101631.16;5016688;28;20119;-78
2021/04/22 05:04:01;;;;;;;32.72;11.45;;;;;;;7.50;70.09;101627.84;5035520;28;20476;-75
2021/04/22 05:06:28;;;;;;;32.90;10.68;;;;;;;7.79;68.97;101624.34;5056260;28;20061;-77
2021/04/22 05:08:55;;;;;;;25.70;10.60;;;;;;;7.49;68.98;101635.28;5055594;28;20111;-77
2021/04/22 05:11:21;;;;;;;33.83;10.63;;;;;;;7.53;71.11;101635.56;5055444;28;20041;-77
2021/04/22 05:13:48;;;;;;;34.28;10.63;;;;;;;7.60;68.84;101649.84;5056245;28;20052;-76
2021/04/22 05:16:18;;;;;;;27.90;10.65;;;;;;;7.65;69.25;101644.34;5056857;28;20515;-77
2021/04/22 05:18:45;;;;;;;27.95;10.50;;;;;;;7.61;68.93;101656.94;5019168;28;20045;-76
2021/04/22 05:21:13;;;;;;;34.13;10.43;;;;;;;7.46;69.64;101654.19;5057417;28;20111;-77
2021/04/22 05:23:39;;;;;;;30.63;10.40;;;;;;;7.33;69.83;101662.91;5041610;28;20049;-78
2021/04/22 05:26:06;;;;;;;28.88;10.35;;;;;;;7.54;69.78;101659.13;5059606;28;20045;-77
2021/04/22 05:28:33;;;;;;;28.83;10.57;;;;;;;7.55;69.19;101666.28;5060047;28;20041;-77
2021/04/22 05:31:02;;;;;;;30.95;10.38;;;;;;;7.68;69.48;101669.31;5061592;28;20044;-80
2021/04/22 05:33:32;;;;;;;33.70;10.82;;;;;;;7.99;67.37;101672.91;5044414;28;20060;-79
2021/04/22 05:36:06;;;;;;;28.33;9.93;;;;;;;7.62;67.76;101681.34;5059067;28;20044;-80
2021/04/22 05:38:33;;;;;;;31.08;9.45;;;;;;;7.61;68.19;101676.16;5059826;28;20492;-78
2021/04/22 05:41:01;;;;;;;21.38;9.45;;;;;;;7.51;68.30;101681.59;5060007;28;20041;-76
2021/04/22 05:43:28;;;;;;;30.67;9.85;;;;;;;7.79;67.93;101678.38;5057207;28;20056;-78
2021/04/22 05:45:55;;;;;;;28.15;9.75;;;;;;;8.19;67.08;101681.19;5045445;28;20045;-78
2021/04/22 05:48:22;;;;;;;28.98;9.63;;;;;;;7.94;66.46;101692.94;5055254;28;20056;-79
2021/04/22 05:50:49;;;;;;;28.08;8.90;;;;;;;7.71;67.20;101681.63;5036000;28;20382;-79
2021/04/22 05:53:21;;;;;;;27.05;8.43;;;;;;;7.82;67.07;101692.38;5032201;28;20064;-78
2021/04/22 05:55:49;;;;;;;29.48;9.85;;;;;;;7.92;66.79;101689.66;5033837;28;20149;-78
2021/04/22 05:58:16;;;;;;;29.52;9.35;;;;;;;7.77;66.47;101700.59;5034727;28;20037;-79
2021/04/22 06:00:44;;;;;;;26.73;8.85;;;;;;;7.95;67.13;101683.59;5047308;28;20060;-76
2021/04/22 06:03:20;;;;;;;21.65;7.93;;;;;;;7.92;66.41;101695.13;5056174;28;20058;-79
2021/04/22 06:05:47;;;;;;;25.02;9.50;;;;;;;7.68;66.29;101701.38;5035762;28;20041;-75
2021/04/22 06:08:14;;;;;;;27.27;8.35;;;;;;;7.42;68.01;101692.28;5055860;28;20040;-78
2021/04/22 06:10:41;;;;;;;30.45;8.77;;;;;;;7.57;66.84;101702.44;5038602;28;20064;-80
2021/04/22 06:13:08;;;;;;;25.33;8.38;;;;;;;7.57;66.88;101707.91;5038950;28;20045;-80
2021/04/22 06:15:35;;;;;;;26.13;8.25;;;;;;;7.48;67.09;101701.34;5050292;28;20593;-80
2021/04/22 06:18:03;;;;;;;30.10;8.35;;;;;;;7.54;67.04;101703.81;5056710;28;20044;-79
2021/04/22 06:20:30;;;;;;;26.83;8.45;;;;;;;7.75;67.29;101699.22;5036504;28;20064;-78
2021/04/22 06:23:00;;;;;;;26.13;9.65;;;;;;;7.89;66.31;101703.09;5034462;28;20068;-77
2021/04/22 06:25:27;;;;;;;27.15;8.23;;;;;;;7.81;66.29;101704.44;5019732;28;20045;-80
2021/04/22 06:27:55;;;;;;;27.05;9.50;;;;;;;7.69;65.91;101716.72;5054299;28;20049;-80
2021/04/22 06:30:24;;;;;;;31.35;9.02;;;;;;;7.76;66.60;101704.41;5054047;28;20052;-79
2021/04/22 06:32:51;;;;;;;20.75;7.90;;;;;;;7.61;66.72;101720.00;5054180;28;20056;-77
2021/04/22 06:35:18;;;;;;;23.92;8.98;;;;;;;7.61;66.79;101715.34;5035581;28;20053;-79
2021/04/22 06:37:45;;;;;;;27.13;8.27;;;;;;;7.79;66.09;101720.31;5036021;28;20049;-78
2021/04/22 06:40:21;;;;;;;26.95;8.77;;;;;;;8.00;65.56;101713.00;5053161;28;20059;-81
2021/04/22 06:42:54;;;;;;;25.50;8.55;;;;;;;8.98;66.32;101715.16;5053371;28;20041;-78
2021/04/22 06:45:22;;;;;;;22.50;8.85;;;;;;;9.29;62.47;101707.66;5053270;28;20061;-77
2021/04/22 06:47:49;;;;;;;27.35;8.10;;;;;;;9.41;63.08;101712.81;5053627;28;20044;-77
2021/04/22 06:50:22;;;;;;;21.67;7.43;;;;;;;9.86;61.42;101704.34;5052913;28;20056;-76
2021/04/22 06:52:50;;;;;;;23.25;7.68;;;;;;;8.35;63.21;101720.47;5051811;28;20049;-73
2021/04/22 06:55:22;;;;;;;24.95;9.27;;;;;;;8.33;63.46;101725.38;5050973;28;20045;-77
2021/04/22 06:57:58;;;;;;;22.80;8.57;;;;;;;8.32;64.00;101727.31;5017782;28;20049;-81
2021/04/22 07:00:29;;;;;;;24.80;8.87;;;;;;;8.23;63.70;101728.91;5033834;28;20052;-78
2021/04/22 07:02:56;;;;;;;25.33;8.77;;;;;;;8.25;64.24;101724.00;5034794;28;20151;-78
2021/04/22 07:05:23;;;;;;;22.35;9.02;;;;;;;7.99;64.64;101730.53;5045825;28;20563;-81
2021/04/22 07:07:50;;;;;;;27.75;9.77;;;;;;;8.11;64.00;101735.78;5016332;28;20416;-75
2021/04/22 07:10:17;;;;;;;24.35;8.98;;;;;;;8.08;64.72;101745.38;5031023;28;20447;-75
2021/04/22 07:12:45;;;;;;;31.67;9.50;;;;;;;8.07;64.43;101748.38;5043135;28;20056;-79
2021/04/22 07:15:12;;;;;;;29.95;9.05;;;;;;;8.43;66.05;101744.59;4999247;28;20050;-76
2021/04/22 07:17:40;;;;;;;23.70;9.00;;;;;;;8.27;64.74;101742.94;5041035;28;20394;-77
2021/04/22 07:20:13;;;;;;;24.10;8.73;;;;;;;8.45;63.43;101761.63;5043759;28;20053;-76
2021/04/22 07:22:58;;;;;;;23.90;9.35;;;;;;;8.16;64.41;101757.72;5042163;28;20045;-73
2021/04/22 07:25:30;;;;;;;24.55;9.55;;;;;;;8.39;64.74;101766.28;5040891;28;20056;-76
2021/04/22 07:27:58;;;;;;;21.83;8.90;;;;;;;8.79;63.37;101758.03;5042124;28;20056;-73
2021/04/22 07:30:25;;;;;;;22.83;8.57;;;;;;;8.69;63.02;101762.72;5014176;28;20052;-74
2021/04/22 07:32:53;;;;;;;23.27;8.95;;;;;;;8.45;63.68;101764.38;5041095;28;20057;-74
2021/04/22 07:35:21;;;;;;;26.55;9.65;;;;;;;8.67;62.35;101770.41;5044059;28;20052;-78
2021/04/22 07:37:49;;;;;;;28.98;8.95;;;;;;;8.79;62.41;101773.69;5041959;28;20056;-71
2021/04/22 07:40:21;;;;;;;25.13;9.48;;;;;;;8.82;62.43;101771.22;5042961;28;20064;-75
2021/04/22 07:42:49;;;;;;;23.42;9.00;;;;;;;8.76;62.04;101777.00;5030424;28;20037;-77
2021/04/22 07:45:20;;;;;;;31.23;10.10;;;;;;;8.89;61.92;101785.50;5042189;28;20057;-74
2021/04/22 07:47:48;;;;;;;23.75;9.18;;;;;;;8.95;62.64;101775.34;5041607;28;20053;-72
2021/04/22 07:50:17;;;;;;;20.63;9.55;;;;;;;9.35;62.22;101761.50;5047300;28;20045;-76
2021/04/22 07:52:44;;;;;;;24.95;9.80;;;;;;;9.35;60.44;101775.25;5043381;28;20049;-76
2021/04/22 07:55:14;;;;;;;23.58;9.98;;;;;;;9.29;61.14;101773.63;5042733;28;20152;-79
2021/04/22 07:57:42;;;;;;;24.08;9.88;;;;;;;9.32;60.76;101769.50;5041910;28;20053;-76
2021/04/22 08:00:15;;;;;;;27.92;10.43;;;;;;;9.46;60.66;101770.53;5042587;28;20050;-81
2021/04/22 08:02:47;;;;;;;26.13;10.55;;;;;;;9.76;60.71;101775.94;5032484;28;20374;-77
2021/04/22 08:05:16;;;;;;;21.30;10.38;;;;;;;9.65;59.76;101766.06;5044953;28;20042;-79
2021/04/22 08:08:09;;;;;;;22.33;10.02;;;;;;;9.62;59.89;101777.63;5035745;28;20057;-78
2021/04/22 08:10:46;;;;;;;27.15;10.43;;;;;;;9.42;60.33;101772.19;5032668;28;20045;-78
2021/04/22 08:13:16;;;;;;;28.63;11.23;;;;;;;9.47;60.23;101773.00;5029683;28;20056;-82
2021/04/22 08:15:45;;;;;;;24.77;10.10;;;;;;;9.86;59.33;101767.63;4997181;28;20060;-78
2021/04/22 08:18:19;;;;;;;26.98;10.50;;;;;;;9.87;59.02;101766.50;5033431;28;20044;-77
2021/04/22 08:20:47;;;;;;;22.35;9.63;;;;;;;9.69;59.73;101775.41;5042608;28;20040;-79
2021/04/22 08:23:15;;;;;;;23.15;10.07;;;;;;;9.90;59.66;101776.97;5046175;28;20048;-75
2021/04/22 08:25:49;;;;;;;28.20;11.05;;;;;;;9.85;59.41;101763.22;5041588;28;20588;-79
2021/04/22 08:28:18;;;;;;;34.00;11.13;;;;;;;9.65;59.75;101766.91;5014163;28;20045;-77
2021/04/22 08:30:50;;;;;;;24.77;10.52;;;;;;;10.11;59.79;101762.81;5049629;28;20049;-76
2021/04/22 08:33:23;;;;;;;25.77;10.13;;;;;;;10.36;58.00;101770.09;5043127;28;20468;-78
2021/04/22 08:35:51;;;;;;;31.02;11.30;;;;;;;10.26;57.99;101770.16;5041502;28;20484;-77
2021/04/22 08:38:18;;;;;;;30.83;11.77;;;;;;;10.05;58.65;101763.94;5043281;28;20033;-75
2021/04/22 08:40:47;;;;;;;27.77;11.60;;;;;;;10.34;58.47;101772.28;5041044;28;20074;-79
2021/04/22 08:43:14;;;;;;;27.83;11.98;;;;;;;10.35;58.22;101768.47;5040260;28;20041;-79
2021/04/22 08:45:46;;;;;;;20.25;10.68;;;;;;;10.45;57.97;101760.09;4995163;28;20393;-76
2021/04/22 08:48:18;;;;;;;31.50;11.43;;;;;;;10.59;57.71;101763.03;5021968;28;20499;-78
2021/04/22 08:50:47;;;;;;;29.10;11.90;;;;;;;10.41;57.97;101764.53;5011392;28;20067;-79
2021/04/22 08:53:21;;;;;;;27.02;12.55;;;;;;;10.69;57.82;101757.41;5027199;28;20084;-80
2021/04/22 08:55:48;;;;;;;30.60;13.02;;;;;;;10.76;56.89;101768.94;5022423;28;20053;-79
2021/04/22 08:58:15;;;;;;;29.92;13.80;;;;;;;10.71;56.86;101763.47;5020636;28;20057;-77
2021/04/22 09:00:48;;;;;;;25.55;12.85;;;;;;;10.88;56.62;101770.19;5010782;28;20060;-76
2021/04/22 09:03:16;;;;;;;32.05;12.70;;;;;;;10.82;56.52;101768.63;5023760;28;20054;-80
2021/04/22 09:05:44;;;;;;;29.00;12.93;;;;;;;10.86;56.59;101763.34;5025562;28;20536;-80
2021/04/22 09:08:11;;;;;;;31.67;13.35;;;;;;;10.84;57.02;101763.66;5021032;28;20390;-76
2021/04/22 09:10:38;;;;;;;32.35;13.27;;;;;;;11.07;56.41;101760.09;5028380;28;20062;-78
2021/04/22 09:13:07;;;;;;;30.10;13.15;;;;;;;11.43;55.23;101765.22;5027233;28;20057;-80
2021/04/22 09:15:36;;;;;;;29.92;13.77;;;;;;;11.27;55.46;101767.34;5027434;28;20053;-77
2021/04/22 09:18:07;;;;;;;32.80;13.52;;;;;;;11.38;55.20;101774.38;5022809;28;20425;-75
2021/04/22 09:20:37;;;;;;;32.05;13.73;;;;;;;11.21;55.31;101774.84;5022958;28;20064;-82
2021/04/22 09:23:23;;;;;;;25.73;14.02;;;;;;;11.16;55.84;101769.38;5021693;28;20061;-77
2021/04/22 09:25:59;;;;;;;25.95;13.02;;;;;;;11.38;55.23;101771.63;5010373;28;20057;-76
2021/04/22 09:28:55;;;;;;;28.20;12.88;;;;;;;11.45;55.49;101763.00;5021923;28;20041;-78
2021/04/22 09:31:26;;;;;;;28.27;13.68;;;;;;;11.68;54.63;101768.53;4970652;28;20050;-74
2021/04/22 09:34:14;;;;;;;24.05;12.70;;;;;;;11.83;53.62;101776.63;4985627;28;20058;-74
2021/04/22 09:36:49;;;;;;;26.17;12.65;;;;;;;11.63;54.16;101770.50;4971224;28;20062;-75
2021/04/22 09:39:21;;;;;;;24.50;12.95;;;;;;;11.72;54.23;101774.28;4971430;28;20450;-75
2021/04/22 09:41:52;;;;;;;24.50;13.38;;;;;;;11.81;54.14;101775.25;4986027;28;20069;-75
2021/04/22 09:44:19;;;;;;;27.63;13.90;;;;;;;11.75;54.38;101770.94;4984561;28;20126;-73
2021/04/22 09:46:48;;;;;;;26.60;13.93;;;;;;;11.98;53.75;101781.09;4967563;28;20050;-74
2021/04/22 09:49:19;;;;;;;25.40;13.75;;;;;;;12.21;53.33;101775.53;4984382;28;20058;-78
2021/04/22 09:51:48;;;;;;;23.15;13.60;;;;;;;12.32;52.99;101778.97;4988552;28;20057;-73
2021/04/22 09:54:23;;;;;;;25.50;13.05;;;;;;;12.31;52.84;101772.63;4987598;28;20046;-78
2021/04/22 09:56:55;;;;;;;29.92;13.60;;;;;;;12.29;52.41;101783.13;4975144;28;20384;-75
2021/04/22 09:59:28;;;;;;;31.65;13.80;;;;;;;12.27;53.04;101776.28;4971974;28;20054;-71
2021/04/22 10:02:02;;;;;;;31.38;13.35;;;;;;;12.32;53.42;101779.81;4957986;28;20065;-74
2021/04/22 10:04:34;;;;;;;29.48;13.23;;;;;;;12.74;52.78;101776.09;4974073;28;20054;-80
2021/04/22 10:07:02;;;;;;;30.60;13.10;;;;;;;12.89;52.29;101777.75;4999256;28;20072;-76
2021/04/22 10:09:35;;;;;;;21.27;12.68;;;;;;;12.69;52.14;101789.16;5033976;28;20056;-75
2021/04/22 10:12:04;;;;;;;26.30;12.75;;;;;;;12.94;52.30;101778.50;5031869;28;20057;-80
2021/04/22 10:14:33;;;;;;;27.38;13.52;;;;;;;13.11;52.15;101784.28;5046557;28;20538;-79
2021/04/22 10:17:19;;;;;;;24.77;12.43;;;;;;;13.10;50.35;101798.44;5046316;28;20048;-75
2021/04/22 10:20:19;;;;;;;28.25;13.68;;;;;;;13.34;50.31;101794.38;5032888;28;20063;-79
2021/04/22 10:22:48;;;;;;;23.20;13.15;;;;;;;13.16;49.55;101786.16;4967826;28;20047;-75
2021/04/22 10:25:18;;;;;;;32.28;13.00;;;;;;;13.29;49.13;101785.34;4949636;28;20050;-71
2021/04/22 10:27:45;;;;;;;26.95;12.75;;;;;;;13.33;49.06;101795.50;4954711;28;20055;-72
2021/04/22 10:30:18;;;;;;;24.05;12.55;;;;;;;13.20;49.30;101788.00;4969570;28;20047;-73
2021/04/22 10:32:45;;;;;;;31.50;12.75;;;;;;;13.32;49.05;101785.56;4953644;28;20058;-76
2021/04/22 10:35:15;;;;;;;28.73;14.68;;;;;;;13.31;48.63;101786.69;4968577;28;20585;-73
2021/04/22 10:37:44;;;;;;;24.23;12.27;;;;;;;13.49;47.69;101779.44;4963352;28;20054;-76
2021/04/22 10:40:16;;;;;;;28.98;11.93;;;;;;;13.40;48.47;101784.88;4953955;28;20059;-78
2021/04/22 10:42:45;;;;;;;19.45;11.52;;;;;;;13.71;47.22;101785.06;4955453;28;20062;-76
2021/04/22 10:45:15;;;;;;;23.60;12.13;;;;;;;13.40;47.05;101787.63;4971600;28;20066;-77
2021/04/22 10:47:43;;;;;;;26.75;12.00;;;;;;;13.57;47.77;101773.16;4970373;28;20042;-77
2021/04/22 10:50:19;;;;;;;26.27;11.50;;;;;;;13.82;46.57;101772.66;4959193;28;20050;-74
2021/04/22 10:52:48;;;;;;;23.90;11.60;;;;;;;13.48;47.14;101778.59;4973560;28;20049;-74
2021/04/22 10:55:21;;;;;;;22.88;11.68;;;;;;;13.63;46.46;101771.13;4942301;28;20059;-78
2021/04/22 10:57:54;;;;;;;26.10;11.52;;;;;;;13.69;46.34;101775.41;4972376;28;20038;-73
2021/04/22 11:00:29;;;;;;;25.92;11.48;;;;;;;13.82;46.42;101775.44;5041638;28;20048;-75
2021/04/22 11:02:58;;;;;;;25.52;11.80;;;;;;;13.82;46.55;101771.81;5052056;28;20059;-74
2021/04/22 11:05:30;;;;;;;24.00;12.27;;;;;;;13.89;45.69;101777.78;5048323;28;20049;-74
2021/04/22 11:08:05;;;;;;;21.90;11.18;;;;;;;14.12;47.76;101771.16;5047640;28;20033;-75
2021/04/22 11:10:39;;;;;;;23.05;10.18;;;;;;;14.36;44.19;101775.34;5046748;28;20053;-75
2021/04/22 11:13:19;;;;;;;;;;;;;;;14.29;44.72;101768.59;5047256;28;20053;-74
2021/04/22 11:15:52;;;;;;;18.83;8.70;;;;;;;14.32;44.14;101773.50;5045311;28;20288;-75
2021/04/22 11:18:19;;;;;;;21.02;8.57;;;;;;;14.26;44.14;101769.22;5042174;28;20057;-75
2021/04/22 11:20:47;;;;;;;20.63;9.27;;;;;;;14.49;43.93;101757.81;5014082;28;20160;-76
2021/04/22 11:23:19;;;;;;;20.63;9.38;;;;;;;14.35;42.78;101762.59;5043243;28;20049;-76
2021/04/22 11:25:53;;;;;;;25.98;8.75;;;;;;;14.44;43.26;101757.13;5045507;28;20044;-75